Nos Reves — PB9455 — position and weather

sailwx.info

Track history (hours):
 
Tides and Currents Weather Stations Pressure Air Temp Water Temp Dewpoint Dewpoint Depression Visibility Wind Speed Wind Dir Waves Ship Positions

Nos Reves

Last reported at 2015-Jul-03 11:27 UTC. Time now 2015-Jul-04 01:37 UTC.
Position N 42°49' E 010°27'.

Length 15 m.

Type: Sailing vessel. MMSI: 244650262.

Date/timePositionNaut miles runAvg speedWind from/ knotsBaromVisibWave heightAir tempDewpointWater temp
2015-Jul-03 11:27N 42°49' E 010°27'3 3.0
2015-Jul-03 10:33N 42°52' E 010°26'5 4.3
2015-Jul-03 09:27N 42°51' E 010°20'5 5.3
2015-Jul-03 08:33N 42°50' E 010°14'2 0.8
2015-Jul-03 06:09N 42°49' E 010°12'0 0.0
2015-Jul-03 03:21N 42°49' E 010°12'0 0.0
2015-Jul-03 02:18N 42°49' E 010°12'0 0.0
2015-Jul-02 06:33N 42°49' E 010°12'0 0.0
2015-Jul-02 05:18N 42°49' E 010°12'0 0.0
2015-Jul-02 04:33N 42°49' E 010°12'0 0.0
2015-Jul-02 01:10N 42°49' E 010°12'0 0.0
2015-Jul-01 19:19N 42°49' E 010°12'0 0.0
2015-Jul-01 18:28N 42°49' E 010°12'0 0.0
2015-Jul-01 17:10N 42°49' E 010°12'0 0.0
2015-Jul-01 16:28N 42°49' E 010°12'0 0.0
2015-Jul-01 15:28N 42°49' E 010°12'0 0.0
2015-Jul-01 14:28N 42°49' E 010°12'2 1.2
2015-Jul-01 12:32N 42°50' E 010°10'14 4.4
2015-Jul-01 09:17N 43°00' E 009°56'3 4.8
2015-Jul-01 08:33N 43°02' E 009°52'2 0.1
2015-Jun-30 14:24N 43°03' E 009°51'  
2015-Jun-27 20:19N 43°06' E 007°43'7 6.3
2015-Jun-27 19:17N 43°09' E 007°35'4 5.4
2015-Jun-27 18:33N 43°10' E 007°30'11 3.6
2015-Jun-27 15:26N 43°14' E 007°15'4 4.0
2015-Jun-27 14:32N 43°13' E 007°10'3 3.1
2015-Jun-27 13:30N 43°12' E 007°06'9 4.5
2015-Jun-27 11:24N 43°22' E 007°06'6 3.3
2015-Jun-27 09:33N 43°28' E 007°04'3 0.3
2015-Jun-26 22:32N 43°31' E 007°03'2 0.3
2015-Jun-26 15:08N 43°33' E 007°05'1 1.0
2015-Jun-26 14:04N 43°34' E 007°05'0 0.0
2015-Jun-26 13:28N 43°34' E 007°05'0 0.0
2015-Jun-26 12:28N 43°34' E 007°05'0 0.0
2015-Jun-26 11:28N 43°34' E 007°05'0 0.0
2015-Jun-26 10:28N 43°34' E 007°05'0 0.0
2015-Jun-26 09:28N 43°34' E 007°05'0 0.0
2015-Jun-26 08:28N 43°34' E 007°05'0 0.0
2015-Jun-26 07:28N 43°34' E 007°05'0 0.0
2015-Jun-26 04:28N 43°34' E 007°05'0 0.0
2015-Jun-26 03:28N 43°34' E 007°05'0 0.0
2015-Jun-26 02:28N 43°34' E 007°05'0 0.0
2015-Jun-26 01:28N 43°34' E 007°05'0 0.0
2015-Jun-26 00:28N 43°34' E 007°05'0 0.0
2015-Jun-25 23:28N 43°34' E 007°05'0 0.0
2015-Jun-25 22:28N 43°34' E 007°05'0 0.0
2015-Jun-25 21:28N 43°34' E 007°05'0 0.0
2015-Jun-25 20:28N 43°34' E 007°05'0 0.0
2015-Jun-25 19:28N 43°34' E 007°05'0 0.0
2015-Jun-25 18:28N 43°34' E 007°05'0 0.0
2015-Jun-25 17:22N 43°34' E 007°05'0 0.0
2015-Jun-25 16:28N 43°34' E 007°05'0 0.0
2015-Jun-25 15:28N 43°34' E 007°05'0 0.0
2015-Jun-25 14:33N 43°34' E 007°05'0 0.0
2015-Jun-25 13:33N 43°34' E 007°05'0 0.0
2015-Jun-25 12:33N 43°34' E 007°05'0 0.0
2015-Jun-25 11:33N 43°34' E 007°05'0 0.0
2015-Jun-25 08:33N 43°34' E 007°05'0 0.0
2015-Jun-25 07:03N 43°34' E 007°05'0 0.0
2015-Jun-25 06:33N 43°34' E 007°05'0 0.0
2015-Jun-25 05:27N 43°34' E 007°05'0 0.0
2015-Jun-25 04:33N 43°34' E 007°05'0 0.0
2015-Jun-25 03:33N 43°34' E 007°05'0 0.0
2015-Jun-25 02:33N 43°34' E 007°05'0 0.0
2015-Jun-25 01:27N 43°34' E 007°05'0 0.0
2015-Jun-25 00:33N 43°34' E 007°05'0 0.0
2015-Jun-24 23:33N 43°34' E 007°05'0 0.0
2015-Jun-24 22:33N 43°34' E 007°05'0 0.0
2015-Jun-24 21:33N 43°34' E 007°05'0 0.0
2015-Jun-24 20:33N 43°34' E 007°05'0 0.0
2015-Jun-24 18:15N 43°34' E 007°05'0 0.0
2015-Jun-24 17:27N 43°34' E 007°05'0 0.0
2015-Jun-24 16:33N 43°34' E 007°05'0 0.0
2015-Jun-24 15:33N 43°34' E 007°05'0 0.0
2015-Jun-24 14:33N 43°34' E 007°05'0 0.0
2015-Jun-24 13:31N 43°34' E 007°05'0 0.0
2015-Jun-24 12:19N 43°34' E 007°05'0 0.0
2015-Jun-24 11:31N 43°34' E 007°05'0 0.0
2015-Jun-24 10:31N 43°34' E 007°05'0 0.0
2015-Jun-24 09:31N 43°34' E 007°05'0 0.0
2015-Jun-24 08:31N 43°34' E 007°05'0 0.0
2015-Jun-24 07:31N 43°34' E 007°05'0 0.0
2015-Jun-24 06:31N 43°34' E 007°05'0 0.0
2015-Jun-24 05:31N 43°34' E 007°05'0 0.0
2015-Jun-24 04:30N 43°34' E 007°05'0 0.0
2015-Jun-24 03:30N 43°34' E 007°05'0 0.0
2015-Jun-24 02:30N 43°34' E 007°05'0 0.0
2015-Jun-24 00:33N 43°34' E 007°05'0 0.0
2015-Jun-23 23:33N 43°34' E 007°05'0 0.0
2015-Jun-23 22:33N 43°34' E 007°05'0 0.0
2015-Jun-23 21:33N 43°34' E 007°05'0 0.0
2015-Jun-23 20:33N 43°34' E 007°05'0 0.0
2015-Jun-23 19:33N 43°34' E 007°05'0 0.0
2015-Jun-23 19:03N 43°34' E 007°05'  
Track history (hours):
 
Tides and Currents Weather Stations Pressure Air Temp Water Temp Dewpoint Dewpoint Depression Visibility Wind Speed Wind Dir Waves Ship Positions

Nos Reves

Last reported at 2015-Jul-03 11:27 UTC. Time now 2015-Jul-04 01:37 UTC.
Position N 42°49' E 010°27'.

Length 15 m.

Type: Sailing vessel. MMSI: 244650262.

Date/timePositionNaut miles runAvg speedWind from/ knotsBaromVisibWave heightAir tempDewpointWater temp
2015-Jul-03 11:27N 42°49' E 010°27'3 3.0
2015-Jul-03 10:33N 42°52' E 010°26'5 4.3
2015-Jul-03 09:27N 42°51' E 010°20'5 5.3
2015-Jul-03 08:33N 42°50' E 010°14'2 0.8
2015-Jul-03 06:09N 42°49' E 010°12'0 0.0
2015-Jul-03 03:21N 42°49' E 010°12'0 0.0
2015-Jul-03 02:18N 42°49' E 010°12'0 0.0
2015-Jul-02 06:33N 42°49' E 010°12'0 0.0
2015-Jul-02 05:18N 42°49' E 010°12'0 0.0
2015-Jul-02 04:33N 42°49' E 010°12'0 0.0
2015-Jul-02 01:10N 42°49' E 010°12'0 0.0
2015-Jul-01 19:19N 42°49' E 010°12'0 0.0
2015-Jul-01 18:28N 42°49' E 010°12'0 0.0
2015-Jul-01 17:10N 42°49' E 010°12'0 0.0
2015-Jul-01 16:28N 42°49' E 010°12'0 0.0
2015-Jul-01 15:28N 42°49' E 010°12'0 0.0
2015-Jul-01 14:28N 42°49' E 010°12'2 1.2
2015-Jul-01 12:32N 42°50' E 010°10'14 4.4
2015-Jul-01 09:17N 43°00' E 009°56'3 4.8
2015-Jul-01 08:33N 43°02' E 009°52'2 0.1
2015-Jun-30 14:24N 43°03' E 009°51'  
2015-Jun-27 20:19N 43°06' E 007°43'7 6.3
2015-Jun-27 19:17N 43°09' E 007°35'4 5.4
2015-Jun-27 18:33N 43°10' E 007°30'11 3.6
2015-Jun-27 15:26N 43°14' E 007°15'4 4.0
2015-Jun-27 14:32N 43°13' E 007°10'3 3.1
2015-Jun-27 13:30N 43°12' E 007°06'9 4.5
2015-Jun-27 11:24N 43°22' E 007°06'6 3.3
2015-Jun-27 09:33N 43°28' E 007°04'3 0.3
2015-Jun-26 22:32N 43°31' E 007°03'2 0.3
2015-Jun-26 15:08N 43°33' E 007°05'1 1.0
2015-Jun-26 14:04N 43°34' E 007°05'0 0.0
2015-Jun-26 13:28N 43°34' E 007°05'0 0.0
2015-Jun-26 12:28N 43°34' E 007°05'0 0.0
2015-Jun-26 11:28N 43°34' E 007°05'0 0.0
2015-Jun-26 10:28N 43°34' E 007°05'0 0.0
2015-Jun-26 09:28N 43°34' E 007°05'0 0.0
2015-Jun-26 08:28N 43°34' E 007°05'0 0.0
2015-Jun-26 07:28N 43°34' E 007°05'0 0.0
2015-Jun-26 04:28N 43°34' E 007°05'0 0.0
2015-Jun-26 03:28N 43°34' E 007°05'0 0.0
2015-Jun-26 02:28N 43°34' E 007°05'0 0.0
2015-Jun-26 01:28N 43°34' E 007°05'0 0.0
2015-Jun-26 00:28N 43°34' E 007°05'0 0.0
2015-Jun-25 23:28N 43°34' E 007°05'0 0.0
2015-Jun-25 22:28N 43°34' E 007°05'0 0.0
2015-Jun-25 21:28N 43°34' E 007°05'0 0.0
2015-Jun-25 20:28N 43°34' E 007°05'0 0.0
2015-Jun-25 19:28N 43°34' E 007°05'0 0.0
2015-Jun-25 18:28N 43°34' E 007°05'0 0.0
2015-Jun-25 17:22N 43°34' E 007°05'0 0.0
2015-Jun-25 16:28N 43°34' E 007°05'0 0.0
2015-Jun-25 15:28N 43°34' E 007°05'0 0.0
2015-Jun-25 14:33N 43°34' E 007°05'0 0.0
2015-Jun-25 13:33N 43°34' E 007°05'0 0.0
2015-Jun-25 12:33N 43°34' E 007°05'0 0.0
2015-Jun-25 11:33N 43°34' E 007°05'0 0.0
2015-Jun-25 08:33N 43°34' E 007°05'0 0.0
2015-Jun-25 07:03N 43°34' E 007°05'0 0.0
2015-Jun-25 06:33N 43°34' E 007°05'0 0.0
2015-Jun-25 05:27N 43°34' E 007°05'0 0.0
2015-Jun-25 04:33N 43°34' E 007°05'0 0.0
2015-Jun-25 03:33N 43°34' E 007°05'0 0.0
2015-Jun-25 02:33N 43°34' E 007°05'0 0.0
2015-Jun-25 01:27N 43°34' E 007°05'0 0.0
2015-Jun-25 00:33N 43°34' E 007°05'0 0.0
2015-Jun-24 23:33N 43°34' E 007°05'0 0.0
2015-Jun-24 22:33N 43°34' E 007°05'0 0.0
2015-Jun-24 21:33N 43°34' E 007°05'0 0.0
2015-Jun-24 20:33N 43°34' E 007°05'0 0.0
2015-Jun-24 18:15N 43°34' E 007°05'0 0.0
2015-Jun-24 17:27N 43°34' E 007°05'0 0.0
2015-Jun-24 16:33N 43°34' E 007°05'0 0.0
2015-Jun-24 15:33N 43°34' E 007°05'0 0.0
2015-Jun-24 14:33N 43°34' E 007°05'0 0.0
2015-Jun-24 13:31N 43°34' E 007°05'0 0.0
2015-Jun-24 12:19N 43°34' E 007°05'0 0.0
2015-Jun-24 11:31N 43°34' E 007°05'0 0.0
2015-Jun-24 10:31N 43°34' E 007°05'0 0.0
2015-Jun-24 09:31N 43°34' E 007°05'0 0.0
2015-Jun-24 08:31N 43°34' E 007°05'0 0.0
2015-Jun-24 07:31N 43°34' E 007°05'0 0.0
2015-Jun-24 06:31N 43°34' E 007°05'0 0.0
2015-Jun-24 05:31N 43°34' E 007°05'0 0.0
2015-Jun-24 04:30N 43°34' E 007°05'0 0.0
2015-Jun-24 03:30N 43°34' E 007°05'0 0.0
2015-Jun-24 02:30N 43°34' E 007°05'0 0.0
2015-Jun-24 00:33N 43°34' E 007°05'0 0.0
2015-Jun-23 23:33N 43°34' E 007°05'0 0.0
2015-Jun-23 22:33N 43°34' E 007°05'0 0.0
2015-Jun-23 21:33N 43°34' E 007°05'0 0.0
2015-Jun-23 20:33N 43°34' E 007°05'0 0.0
2015-Jun-23 19:33N 43°34' E 007°05'0 0.0
2015-Jun-23 19:03N 43°34' E 007°05'  

Dump ship's entire track history